Time;durP1;ratioP1;P1;durP2;ratioP2;P2;SDS_P1;SDS_P2;PMS_P1;PMS_P2;Temp;Humidity;BMP_temperature;BMP_pressure;BME280_temperature;BME280_humidity;BME280_pressure;Samples;Min_cycle;Max_cycle;Signal;HPM_P1;HPM_P2
2021/10/01 00:01:09;;;;;;;20.02;13.38;;;;;;;8.44;68.69;101631.16;5004327;28;20030;-59
2021/10/01 00:03:55;;;;;;;15.18;12.32;;;;;;;8.43;68.74;101611.34;5004790;28;20030;-59
2021/10/01 00:06:41;;;;;;;15.80;12.23;;;;;;;8.54;69.93;101627.06;5003393;28;20079;-59
2021/10/01 00:09:27;;;;;;;15.45;11.88;;;;;;;8.56;70.62;101625.38;5004131;28;20251;-59
2021/10/01 00:12:13;;;;;;;15.88;12.68;;;;;;;8.62;71.50;101630.63;5004088;28;20022;-60
2021/10/01 00:15:00;;;;;;;13.98;11.73;;;;;;;8.64;69.57;101634.13;5004494;28;20230;-60
2021/10/01 00:17:46;;;;;;;15.70;12.18;;;;;;;8.68;70.32;101633.34;5004493;28;20042;-59
2021/10/01 00:20:32;;;;;;;14.90;12.82;;;;;;;8.59;70.61;101630.59;5004961;28;20030;-59
2021/10/01 00:23:18;;;;;;;18.40;12.82;;;;;;;8.63;70.29;101629.81;5003223;28;20229;-58
2021/10/01 00:26:04;;;;;;;15.50;12.50;;;;;;;8.51;69.63;101634.72;5004385;28;20022;-58
2021/10/01 00:28:51;;;;;;;15.65;12.00;;;;;;;8.50;69.31;101630.44;5002044;28;20034;-59
2021/10/01 00:31:37;;;;;;;16.85;13.20;;;;;;;8.49;70.08;101628.69;5004198;28;20070;-58
2021/10/01 00:34:23;;;;;;;19.05;13.40;;;;;;;8.50;68.57;101630.44;5003952;28;20080;-58
2021/10/01 00:37:09;;;;;;;16.50;12.80;;;;;;;8.53;70.60;101622.75;5003193;28;20084;-59
2021/10/01 00:39:55;;;;;;;16.13;11.88;;;;;;;8.53;70.90;101625.31;5003905;28;20045;-58
2021/10/01 00:42:41;;;;;;;16.40;11.98;;;;;;;8.57;69.90;101629.69;4999518;28;20054;-59
2021/10/01 00:45:27;;;;;;;19.75;13.35;;;;;;;8.50;68.64;101630.44;5001632;28;20069;-59
2021/10/01 00:48:12;;;;;;;17.30;13.55;;;;;;;8.51;68.67;101622.72;5003826;28;20106;-59
2021/10/01 00:50:59;;;;;;;18.08;13.88;;;;;;;8.49;69.94;101632.13;5003877;28;20030;-59
2021/10/01 00:53:45;;;;;;;14.10;12.35;;;;;;;8.60;69.75;101627.16;5001792;28;20033;-59
2021/10/01 00:56:31;;;;;;;19.45;12.57;;;;;;;8.52;68.57;101621.84;4991878;28;20102;-59
2021/10/01 00:59:17;;;;;;;17.92;13.70;;;;;;;8.53;68.98;101620.16;4996964;28;20137;-59
2021/10/01 01:02:03;;;;;;;16.38;12.90;;;;;;;8.52;67.94;101610.66;5003037;28;20068;-57
2021/10/01 01:04:50;;;;;;;17.52;13.00;;;;;;;8.56;69.37;101615.03;5002179;28;20093;-59
2021/10/01 01:07:58;;;;;;;15.90;12.80;;;;;;;8.60;68.84;101624.59;4990124;28;20030;-60
2021/10/01 01:10:59;;;;;;;16.02;12.85;;;;;;;8.62;69.08;101625.47;5003995;28;20196;-59
2021/10/01 01:14:12;;;;;;;16.40;12.43;;;;;;;8.63;68.56;101622.91;5003268;28;20035;-60
2021/10/01 01:17:01;;;;;;;17.55;13.07;;;;;;;8.21;69.25;101556.72;5003296;28;20077;-59
2021/10/01 01:20:31;;;;;;;16.00;12.43;;;;;;;8.55;70.22;101605.53;5003958;28;20045;-59
2021/10/01 01:23:38;;;;;;;17.27;12.27;;;;;;;8.59;69.98;101631.47;5018298;28;20030;-59
2021/10/01 01:27:02;;;;;;;19.17;14.30;;;;;;;8.62;69.36;101620.31;5005520;28;20038;-59
2021/10/01 01:30:11;;;;;;;21.15;13.57;;;;;;;8.59;69.12;101620.25;4993629;28;20042;-59
2021/10/01 01:32:59;;;;;;;19.27;13.20;;;;;;;8.55;70.29;101616.75;5014409;28;20023;-59
2021/10/01 01:35:48;;;;;;;23.27;13.57;;;;;;;8.59;69.11;101622.84;5003304;28;20216;-58
2021/10/01 01:38:40;;;;;;;20.48;14.35;;;;;;;8.51;69.57;101633.03;5003904;28;20022;-59
2021/10/01 01:41:28;;;;;;;18.87;14.03;;;;;;;8.58;70.60;101624.56;5002211;28;20057;-60
2021/10/01 01:44:16;;;;;;;21.67;14.00;;;;;;;8.30;70.91;101563.78;5007394;28;20030;-60
2021/10/01 01:47:03;;;;;;;24.10;14.68;;;;;;;8.60;70.64;101622.88;5007530;28;20034;-59
2021/10/01 01:49:50;;;;;;;23.67;14.98;;;;;;;8.56;70.05;101608.16;5006606;28;20201;-58
2021/10/01 01:52:38;;;;;;;20.70;15.55;;;;;;;8.67;69.74;101616.09;5002420;28;20042;-59
2021/10/01 01:55:25;;;;;;;20.38;15.65;;;;;;;8.72;70.03;101622.25;5006486;28;20030;-58
2021/10/01 01:58:12;;;;;;;19.38;14.80;;;;;;;8.64;70.58;101616.06;5006074;28;20027;-58
2021/10/01 02:00:59;;;;;;;25.67;17.35;;;;;;;8.57;70.96;101607.31;5003915;28;20335;-58
2021/10/01 02:03:46;;;;;;;19.95;15.90;;;;;;;8.67;71.29;101612.66;5005502;28;20165;-58
2021/10/01 02:06:33;;;;;;;26.52;16.10;;;;;;;8.59;71.64;101610.81;5018950;28;20034;-58
2021/10/01 02:09:21;;;;;;;21.15;16.15;;;;;;;8.53;70.25;101592.59;5007173;28;20026;-58
2021/10/01 02:12:07;;;;;;;23.58;16.13;;;;;;;8.66;70.78;101609.19;5006425;28;20224;-58
2021/10/01 02:14:57;;;;;;;21.42;16.30;;;;;;;8.30;71.08;101561.19;4989838;28;20319;-58
2021/10/01 02:17:46;;;;;;;22.98;16.95;;;;;;;8.66;70.60;101610.91;4991271;28;20121;-58
2021/10/01 02:20:34;;;;;;;24.38;17.40;;;;;;;8.23;71.00;101551.59;5006236;28;20327;-58
2021/10/01 02:23:20;;;;;;;21.65;16.63;;;;;;;8.54;71.68;101619.31;5005278;28;20061;-58
2021/10/01 02:29:25;;;;;;;23.92;17.30;;;;;;;8.36;70.77;101614.63;5005524;28;20025;-58
2021/10/01 02:32:33;;;;;;;31.90;18.70;;;;;;;8.28;72.19;101617.94;5006400;28;20030;-58
2021/10/01 02:35:19;;;;;;;24.35;17.33;;;;;;;8.37;71.68;101614.66;5006382;28;20038;-59
2021/10/01 02:38:05;;;;;;;26.23;17.20;;;;;;;8.29;71.89;101613.66;4995155;28;20035;-58
2021/10/01 02:40:51;;;;;;;26.52;17.08;;;;;;;8.42;71.08;101613.06;5012867;28;20084;-59
2021/10/01 02:43:38;;;;;;;25.17;17.80;;;;;;;8.47;71.42;101613.16;5007379;28;20050;-58
2021/10/01 02:46:24;;;;;;;23.83;17.10;;;;;;;8.50;71.63;101614.94;5005546;28;20030;-59
2021/10/01 02:49:10;;;;;;;24.90;17.75;;;;;;;8.55;71.84;101610.72;5005162;28;20022;-59
2021/10/01 02:52:03;;;;;;;27.23;16.95;;;;;;;8.51;70.77;101609.81;4998710;28;20031;-59
2021/10/01 02:55:03;;;;;;;22.83;16.88;;;;;;;8.53;71.53;101615.00;5003638;28;20034;-58
2021/10/01 02:57:59;;;;;;;22.70;17.35;;;;;;;8.44;72.48;101595.91;5004894;28;20485;-59
2021/10/01 03:00:46;;;;;;;21.05;15.50;;;;;;;8.57;71.98;101616.78;5003885;28;20030;-60
2021/10/01 03:03:43;;;;;;;23.23;15.50;;;;;;;8.38;73.35;101588.03;4990487;28;20022;-59
2021/10/01 03:06:33;;;;;;;22.88;15.43;;;;;;;8.48;73.38;101602.00;4989645;28;20034;-59
2021/10/01 03:09:23;;;;;;;24.58;14.50;;;;;;;8.60;74.15;101617.69;5004272;28;20026;-59
2021/10/01 03:12:11;;;;;;;20.50;15.30;;;;;;;8.57;74.47;101616.78;5006255;28;20025;-59
2021/10/01 03:14:56;;;;;;;25.15;15.95;;;;;;;8.59;74.23;101615.09;5014918;28;20029;-59
2021/10/01 03:17:45;;;;;;;21.63;14.93;;;;;;;8.33;74.02;101574.16;5004507;28;20026;-59
2021/10/01 03:20:31;;;;;;;19.98;13.60;;;;;;;8.57;74.32;101617.66;5006032;28;20034;-59
2021/10/01 03:23:19;;;;;;;19.00;14.35;;;;;;;8.37;74.61;101575.94;5005498;28;20054;-59
2021/10/01 03:26:06;;;;;;;19.15;13.23;;;;;;;8.57;74.92;101621.97;5002788;28;20034;-59
2021/10/01 03:28:52;;;;;;;19.30;13.82;;;;;;;8.59;74.04;101622.84;5005552;28;20030;-58
2021/10/01 03:31:39;;;;;;;15.85;11.57;;;;;;;8.54;73.03;101621.91;5005141;28;20030;-59
2021/10/01 03:34:25;;;;;;;15.20;11.27;;;;;;;8.46;73.01;101612.31;5002018;28;20026;-58
2021/10/01 03:37:10;;;;;;;13.93;10.70;;;;;;;8.52;72.15;101627.00;5005160;28;20288;-58
2021/10/01 03:39:58;;;;;;;14.23;11.02;;;;;;;8.55;72.46;101623.63;5004477;28;20069;-58
2021/10/01 03:42:44;;;;;;;16.27;11.82;;;;;;;8.47;72.90;101608.00;5004273;28;20069;-59
2021/10/01 03:45:30;;;;;;;18.52;12.50;;;;;;;8.55;73.56;101626.19;5003764;28;20101;-58
2021/10/01 03:48:16;;;;;;;18.45;13.60;;;;;;;8.52;72.90;101633.91;5004164;28;20022;-58
2021/10/01 03:51:02;;;;;;;21.05;14.45;;;;;;;8.50;73.18;101636.47;5001721;28;20061;-59
2021/10/01 03:53:48;;;;;;;19.98;14.07;;;;;;;8.55;71.91;101633.94;5003124;28;20039;-58
2021/10/01 03:56:34;;;;;;;19.67;14.02;;;;;;;8.56;72.63;101628.81;5004824;28;20037;-58
2021/10/01 03:59:20;;;;;;;19.13;13.82;;;;;;;8.50;72.24;101630.44;5004359;28;20036;-59
2021/10/01 04:02:06;;;;;;;22.77;14.48;;;;;;;8.53;72.79;101633.06;5004591;28;20048;-59
2021/10/01 04:04:51;;;;;;;22.60;15.43;;;;;;;8.54;73.22;101629.66;5001177;28;20034;-58
2021/10/01 04:07:37;;;;;;;21.10;14.65;;;;;;;8.56;73.49;101633.97;5004890;28;20026;-59
2021/10/01 04:10:23;;;;;;;20.90;15.45;;;;;;;8.52;74.37;101636.47;5004130;28;20093;-59
2021/10/01 04:13:09;;;;;;;27.75;16.58;;;;;;;8.52;73.93;101633.91;5019665;28;20060;-60
2021/10/01 04:15:55;;;;;;;22.88;15.05;;;;;;;8.49;72.95;101620.94;5004264;28;20357;-58
2021/10/01 04:18:41;;;;;;;21.15;15.98;;;;;;;8.52;73.68;101633.91;5003369;28;20036;-59
2021/10/01 04:21:27;;;;;;;23.50;15.95;;;;;;;8.52;73.60;101618.41;5003452;28;20340;-60
2021/10/01 04:24:12;;;;;;;24.30;15.65;;;;;;;8.46;72.81;101627.81;5002192;28;20037;-59
2021/10/01 04:26:58;;;;;;;22.35;15.82;;;;;;;8.38;72.88;101618.09;5003834;28;20101;-59
2021/10/01 04:29:44;;;;;;;20.92;15.90;;;;;;;8.21;72.72;101595.44;5001222;28;20089;-59
2021/10/01 04:32:32;;;;;;;28.17;16.10;;;;;;;8.51;72.44;101624.41;4986524;28;20061;-59
2021/10/01 04:35:17;;;;;;;20.98;15.57;;;;;;;8.48;72.26;101634.69;5000921;28;20061;-60
2021/10/01 04:38:03;;;;;;;25.05;15.02;;;;;;;8.44;71.86;101629.47;5004801;28;20093;-59
2021/10/01 04:40:50;;;;;;;21.00;14.07;;;;;;;8.43;71.46;101630.25;5008005;28;20050;-58
2021/10/01 04:43:36;;;;;;;21.40;15.70;;;;;;;8.45;71.60;101630.31;5003987;28;20064;-57
2021/10/01 04:46:22;;;;;;;22.75;16.58;;;;;;;8.40;71.64;101629.34;5003089;28;20037;-57
2021/10/01 04:49:08;;;;;;;23.35;16.00;;;;;;;8.36;71.84;101619.81;5001555;28;20318;-57
2021/10/01 04:51:54;;;;;;;20.23;14.70;;;;;;;8.36;71.77;101628.41;5001818;28;20218;-58
2021/10/01 04:54:40;;;;;;;24.10;15.52;;;;;;;8.35;72.50;101642.19;5006603;28;20029;-58
2021/10/01 04:57:26;;;;;;;24.33;16.15;;;;;;;8.36;72.16;101635.28;5013115;28;20393;-58
2021/10/01 05:00:12;;;;;;;19.67;15.45;;;;;;;8.39;70.70;101638.78;4999054;28;20030;-58
2021/10/01 05:02:59;;;;;;;21.42;15.82;;;;;;;8.29;71.36;101634.28;5013741;28;20235;-58
2021/10/01 05:05:45;;;;;;;17.92;14.50;;;;;;;8.35;70.85;101642.19;4993465;28;20022;-59
2021/10/01 05:08:31;;;;;;;21.35;14.98;;;;;;;8.32;71.38;101647.25;5003476;28;20053;-59
2021/10/01 05:11:17;;;;;;;22.50;17.17;;;;;;;8.31;71.56;101640.38;5003616;28;20038;-59
2021/10/01 05:14:03;;;;;;;20.35;15.02;;;;;;;8.38;71.99;101649.09;4995128;28;20338;-58
2021/10/01 05:16:48;;;;;;;25.50;15.35;;;;;;;8.42;72.03;101648.31;5006140;28;20330;-59
2021/10/01 05:19:34;;;;;;;19.65;16.00;;;;;;;8.39;71.04;101645.69;5007368;28;20058;-59
2021/10/01 05:22:20;;;;;;;26.20;15.55;;;;;;;8.41;71.51;101642.28;5007225;28;20065;-59
2021/10/01 05:25:07;;;;;;;22.63;16.35;;;;;;;8.39;72.50;101646.53;5004139;28;20034;-59
2021/10/01 05:27:53;;;;;;;21.75;15.52;;;;;;;8.25;72.23;101635.06;5005026;28;20239;-59
2021/10/01 05:30:40;;;;;;;22.15;16.27;;;;;;;8.38;72.11;101642.22;5016358;28;20101;-59
2021/10/01 05:33:26;;;;;;;20.65;16.02;;;;;;;8.43;71.56;101640.59;5009207;28;20338;-59
2021/10/01 05:36:12;;;;;;;24.77;16.90;;;;;;;8.46;70.07;101639.81;5006425;28;20027;-59
2021/10/01 05:38:57;;;;;;;24.27;16.25;;;;;;;8.48;70.94;101645.00;5005165;28;20050;-59
2021/10/01 05:41:43;;;;;;;21.60;16.60;;;;;;;8.49;69.67;101642.47;5007328;28;20081;-59
2021/10/01 05:44:29;;;;;;;24.00;16.15;;;;;;;8.45;70.47;101641.53;5007631;28;20030;-59
2021/10/01 05:47:15;;;;;;;24.90;17.10;;;;;;;8.39;70.50;101627.59;5007171;28;20034;-59
2021/10/01 05:50:03;;;;;;;23.35;17.00;;;;;;;8.51;70.06;101643.38;5004197;28;20082;-60
2021/10/01 05:53:24;;;;;;;23.17;18.10;;;;;;;8.42;69.98;101649.19;4994906;28;20027;-59
2021/10/01 05:55:55;;;;;;;23.48;17.33;;;;;;;8.50;70.56;101648.50;5004718;28;20101;-58
2021/10/01 05:58:42;;;;;;;23.45;17.25;;;;;;;8.22;70.41;101591.13;5006446;28;20057;-59
2021/10/01 06:01:28;;;;;;;26.92;17.42;;;;;;;8.53;69.62;101633.94;5004970;28;20042;-59
2021/10/01 06:04:15;;;;;;;26.52;17.50;;;;;;;8.56;70.02;101648.63;5006272;28;20034;-59
2021/10/01 06:07:01;;;;;;;24.15;17.38;;;;;;;8.53;70.78;101651.16;5006292;28;20029;-59
2021/10/01 06:09:47;;;;;;;30.25;18.75;;;;;;;8.34;70.40;101643.00;4990414;28;20247;-60
2021/10/01 06:12:33;;;;;;;26.33;19.10;;;;;;;8.41;70.31;101650.03;4991088;28;20022;-59
2021/10/01 06:15:19;;;;;;;29.27;18.73;;;;;;;8.46;69.56;101645.88;5006243;28;20022;-59
2021/10/01 06:18:05;;;;;;;26.00;18.48;;;;;;;8.52;70.79;101654.56;5005784;28;20399;-59
2021/10/01 06:20:51;;;;;;;28.00;19.52;;;;;;;8.55;70.18;101644.28;5004765;28;20026;-60
2021/10/01 06:23:37;;;;;;;27.48;18.23;;;;;;;8.51;70.46;101656.28;4993627;28;20061;-60
2021/10/01 06:26:22;;;;;;;26.80;19.17;;;;;;;8.56;69.76;101652.06;5006071;28;20046;-59
2021/10/01 06:29:08;;;;;;;28.98;18.92;;;;;;;8.56;70.25;101654.63;5006627;28;20022;-59
2021/10/01 06:31:54;;;;;;;28.92;18.50;;;;;;;8.62;71.09;101659.06;5018144;28;20043;-59
2021/10/01 06:34:40;;;;;;;25.92;19.52;;;;;;;8.69;71.16;101660.03;5006171;28;20025;-58
2021/10/01 06:37:26;;;;;;;24.60;18.45;;;;;;;8.74;70.51;101656.69;5006538;28;20323;-59
2021/10/01 06:40:12;;;;;;;30.45;18.65;;;;;;;8.73;69.73;101654.94;5006718;28;20041;-59
2021/10/01 06:43:01;;;;;;;29.88;18.55;;;;;;;8.63;70.12;101668.53;5006163;28;20027;-58
2021/10/01 06:45:51;;;;;;;25.08;18.55;;;;;;;8.63;69.16;101671.13;5005727;28;20022;-59
2021/10/01 06:49:13;;;;;;;27.65;18.25;;;;;;;8.56;70.19;101640.88;5004584;28;20026;-58
2021/10/01 08:21:00;;;;;;;28.15;21.05;;;;;;;9.01;68.19;101665.78;4999030;28;20038;-59
2021/10/01 08:23:46;;;;;;;30.33;23.08;;;;;;;9.02;68.12;101672.72;5004689;28;20022;-59
2021/10/01 08:26:32;;;;;;;33.47;23.98;;;;;;;9.01;68.32;101675.22;5004558;28;20219;-59
2021/10/01 08:29:18;;;;;;;35.53;25.77;;;;;;;9.03;67.60;101665.81;5004038;28;20125;-59
2021/10/01 08:32:05;;;;;;;31.55;24.13;;;;;;;8.97;68.06;101659.69;5017046;28;20349;-59
2021/10/01 08:34:51;;;;;;;32.00;23.50;;;;;;;8.95;66.84;101669.13;5003460;28;20090;-60
2021/10/01 08:37:37;;;;;;;29.75;23.13;;;;;;;9.02;67.24;101674.41;5003469;28;20049;-59
2021/10/01 08:40:24;;;;;;;29.77;22.25;;;;;;;8.94;67.68;101672.56;5004229;28;20038;-59
2021/10/01 08:43:12;;;;;;;32.25;23.33;;;;;;;9.01;67.19;101688.16;4999632;28;20248;-60
2021/10/01 08:45:59;;;;;;;32.53;23.17;;;;;;;8.70;68.25;101625.63;5001507;28;20058;-59
2021/10/01 08:48:46;;;;;;;35.00;23.05;;;;;;;9.04;67.87;101672.72;5003465;28;20030;-59
2021/10/01 08:51:32;;;;;;;30.45;21.77;;;;;;;9.06;67.59;101676.19;5002310;28;20038;-60
2021/10/01 08:54:19;;;;;;;29.95;22.48;;;;;;;9.01;66.16;101676.13;5004180;28;20295;-58
2021/10/01 08:57:05;;;;;;;29.13;21.70;;;;;;;9.07;67.14;101673.63;5001994;28;20022;-59
2021/10/01 08:59:51;;;;;;;27.08;19.85;;;;;;;9.01;66.31;101665.78;4995528;28;20018;-59
2021/10/01 09:02:37;;;;;;;27.50;20.05;;;;;;;8.94;66.24;101674.28;4997904;28;20089;-59
2021/10/01 09:05:23;;;;;;;28.08;21.08;;;;;;;9.04;66.94;101680.47;4987175;28;20394;-60
2021/10/01 09:08:16;;;;;;;29.05;20.83;;;;;;;9.04;67.61;101677.91;5004630;28;20219;-59
2021/10/01 09:11:05;;;;;;;27.10;21.08;;;;;;;8.76;66.82;101621.41;5002087;28;20042;-59
2021/10/01 09:13:51;;;;;;;28.95;21.75;;;;;;;9.13;65.39;101670.28;5003422;28;20056;-60
2021/10/01 09:16:39;;;;;;;28.00;21.27;;;;;;;8.75;65.27;101609.38;5004021;28;20026;-60
2021/10/01 09:19:38;;;;;;;30.17;21.25;;;;;;;9.15;65.13;101661.72;5004100;28;20069;-60
2021/10/01 09:22:35;;;;;;;30.05;21.35;;;;;;;9.05;66.19;101646.03;5003542;28;20141;-59
2021/10/01 09:25:24;;;;;;;29.02;20.90;;;;;;;9.10;65.24;101665.06;5004007;28;20069;-59
2021/10/01 09:28:14;;;;;;;28.25;20.75;;;;;;;9.18;65.50;101671.25;5001886;28;20077;-59
2021/10/01 09:31:00;;;;;;;29.85;20.50;;;;;;;9.15;65.60;101666.88;5003381;28;20266;-59
2021/10/01 09:33:45;;;;;;;28.08;21.27;;;;;;;9.15;65.53;101669.47;5003033;28;20093;-59
2021/10/01 09:36:32;;;;;;;28.10;21.27;;;;;;;9.20;64.67;101668.69;5004024;28;20026;-60
2021/10/01 09:39:30;;;;;;;29.30;21.58;;;;;;;8.91;65.36;101625.13;5004021;28;20018;-60
2021/10/01 09:42:22;;;;;;;25.92;20.67;;;;;;;9.30;66.23;101674.00;5002574;28;20046;-60
2021/10/01 09:45:10;;;;;;;31.55;22.13;;;;;;;9.21;65.84;101668.69;5002158;28;20197;-60
2021/10/01 09:48:02;;;;;;;27.02;21.27;;;;;;;9.22;65.25;101674.72;5003306;28;20069;-60
2021/10/01 09:50:48;;;;;;;26.52;20.67;;;;;;;9.15;64.84;101674.66;5003408;28;20038;-60
2021/10/01 09:53:43;;;;;;;25.80;21.02;;;;;;;9.19;63.89;101672.97;5018848;28;20243;-60
2021/10/01 09:56:31;;;;;;;27.63;20.13;;;;;;;9.19;66.60;101669.53;5000564;28;20093;-60
2021/10/01 09:59:22;;;;;;;26.23;19.85;;;;;;;9.14;65.08;101675.47;5002736;28;20026;-58
2021/10/01 10:02:13;;;;;;;26.52;20.20;;;;;;;9.21;66.42;101683.34;5001201;28;20049;-59
2021/10/01 10:04:59;;;;;;;28.47;20.87;;;;;;;9.24;65.90;101675.66;5005160;28;20323;-59
2021/10/01 10:07:47;;;;;;;30.67;22.02;;;;;;;9.06;65.85;101669.31;5005359;28;20323;-59
2021/10/01 10:10:44;;;;;;;31.38;20.60;;;;;;;8.94;65.03;101613.13;5016823;28;20251;-59
2021/10/01 10:13:43;;;;;;;30.65;20.33;;;;;;;9.34;65.03;101669.78;5006628;28;20034;-59
2021/10/01 10:16:29;;;;;;;26.52;20.48;;;;;;;9.34;64.40;101669.78;5010774;28;20120;-59
2021/10/01 10:19:20;;;;;;;26.58;18.35;;;;;;;9.35;65.18;101660.28;5010004;28;20026;-59
2021/10/01 10:22:06;;;;;;;28.38;19.13;;;;;;;9.32;65.66;101667.16;5000313;28;20026;-59
2021/10/01 10:24:53;;;;;;;27.10;20.27;;;;;;;9.22;63.33;101666.97;5007144;28;20022;-59
2021/10/01 10:27:39;;;;;;;25.38;20.05;;;;;;;9.33;64.32;101666.34;5005973;28;20038;-59
2021/10/01 10:30:25;;;;;;;24.83;19.80;;;;;;;9.38;64.53;101660.34;5003462;28;20030;-59
2021/10/01 10:33:37;;;;;;;25.55;19.38;;;;;;;9.50;64.82;101671.75;5006929;28;20030;-59
2021/10/01 10:36:44;;;;;;;24.80;19.30;;;;;;;9.53;65.28;101673.50;5004927;28;20200;-60
2021/10/01 10:39:32;;;;;;;27.48;19.70;;;;;;;9.52;64.49;101663.13;5004833;28;20036;-59
2021/10/01 10:42:33;;;;;;;28.02;19.08;;;;;;;9.24;63.73;101614.47;5005461;28;20105;-60
2021/10/01 10:45:24;;;;;;;29.10;19.35;;;;;;;9.24;64.50;101618.78;5015305;28;20054;-59
2021/10/01 10:48:18;;;;;;;23.83;18.75;;;;;;;9.55;63.90;101663.19;5004083;28;20032;-59
2021/10/01 10:51:04;;;;;;;29.40;18.38;;;;;;;9.52;63.45;101665.72;5006318;28;20323;-59
2021/10/01 10:54:06;;;;;;;28.88;19.20;;;;;;;9.42;62.41;101668.19;4994374;28;20022;-60
2021/10/01 10:57:28;;;;;;;28.30;19.50;;;;;;;9.53;63.18;101664.88;5006483;28;20423;-59
2021/10/01 11:00:46;;;;;;;25.50;19.60;;;;;;;9.61;63.51;101668.47;5005685;28;20030;-59
2021/10/01 11:03:33;;;;;;;27.17;20.15;;;;;;;9.48;63.88;101649.31;5004541;28;20113;-60
2021/10/01 11:06:20;;;;;;;26.77;20.65;;;;;;;9.55;63.65;101664.06;5001829;28;20303;-60
2021/10/01 11:09:14;;;;;;;27.38;20.23;;;;;;;9.47;62.79;101663.94;5005142;28;20304;-60
2021/10/01 11:12:02;;;;;;;23.42;18.33;;;;;;;9.14;62.90;101608.28;5003988;28;20335;-59
2021/10/01 11:15:13;;;;;;;28.58;19.15;;;;;;;9.58;64.73;101665.84;5002972;28;20030;-60
2021/10/01 11:18:13;;;;;;;24.92;19.17;;;;;;;9.59;64.16;101659.78;5006094;28;20021;-59
2021/10/01 11:20:58;;;;;;;30.00;18.63;;;;;;;9.65;65.07;101668.53;5004695;28;20034;-59
2021/10/01 11:24:14;;;;;;;30.55;20.35;;;;;;;9.58;64.38;101650.31;5004791;28;20113;-59
2021/10/01 11:27:00;;;;;;;23.73;19.08;;;;;;;9.63;63.42;101666.75;5004640;28;20019;-59
2021/10/01 11:29:45;;;;;;;25.33;19.85;;;;;;;9.66;63.50;101665.09;5005885;28;20034;-60
2021/10/01 11:32:32;;;;;;;25.35;19.58;;;;;;;9.64;64.77;101665.91;5005246;28;20030;-59
2021/10/01 11:35:20;;;;;;;25.25;20.27;;;;;;;9.62;64.23;101665.00;5005616;28;20018;-59
2021/10/01 11:38:08;;;;;;;28.98;19.85;;;;;;;9.55;63.56;101663.19;4992859;28;20247;-59
2021/10/01 11:41:11;;;;;;;22.92;19.23;;;;;;;9.55;64.10;101658.91;5002047;28;20100;-59
2021/10/01 11:44:00;;;;;;;28.00;19.20;;;;;;;9.58;64.45;101652.91;4986520;28;20039;-57
2021/10/01 11:46:48;;;;;;;24.63;18.90;;;;;;;9.59;63.21;101671.03;5001194;28;20034;-57
2021/10/01 11:49:34;;;;;;;27.80;19.55;;;;;;;9.62;64.59;101654.66;5004568;28;20042;-57
2021/10/01 11:52:20;;;;;;;24.40;19.30;;;;;;;9.62;65.60;101659.84;4995982;28;20118;-57
2021/10/01 11:55:07;;;;;;;24.95;19.67;;;;;;;9.63;64.38;101651.22;5002036;28;20093;-58
2021/10/01 11:57:53;;;;;;;29.05;20.98;;;;;;;9.58;64.34;101650.31;5001160;28;20030;-58
2021/10/01 12:00:39;;;;;;;26.23;19.48;;;;;;;9.57;63.78;101652.00;5001959;28;20084;-56
2021/10/01 12:03:25;;;;;;;26.90;19.35;;;;;;;9.54;65.33;101646.78;5002115;28;20208;-57
2021/10/01 12:06:11;;;;;;;27.15;20.65;;;;;;;9.53;63.79;101647.63;5000794;28;20029;-57
2021/10/01 12:08:59;;;;;;;26.52;20.98;;;;;;;9.47;64.01;101661.34;5001225;28;20049;-57
2021/10/01 12:11:44;;;;;;;28.17;21.67;;;;;;;9.38;63.42;101655.16;5000979;28;20041;-57
2021/10/01 12:14:30;;;;;;;29.25;20.73;;;;;;;9.34;64.17;101638.75;5003029;28;20077;-57
2021/10/01 12:17:16;;;;;;;36.60;22.08;;;;;;;9.40;63.02;101645.72;5002243;28;20021;-57
2021/10/01 12:20:02;;;;;;;27.00;20.60;;;;;;;9.49;63.95;101644.16;5002980;28;20030;-57
2021/10/01 12:22:48;;;;;;;27.40;21.67;;;;;;;9.53;63.42;101644.19;5004347;28;20478;-59
2021/10/01 12:25:34;;;;;;;25.50;21.48;;;;;;;9.54;63.61;101641.63;4999206;28;20026;-57
2021/10/01 12:28:22;;;;;;;26.13;20.35;;;;;;;9.56;63.81;101632.16;5005270;28;20022;-57
2021/10/01 12:31:08;;;;;;;26.30;21.80;;;;;;;9.42;62.45;101631.97;5003897;28;20046;-57
2021/10/01 12:33:54;;;;;;;28.67;20.30;;;;;;;9.42;64.00;101631.97;5001635;28;20189;-57
2021/10/01 12:36:41;;;;;;;29.90;21.02;;;;;;;9.03;64.78;101560.72;5007740;28;20080;-56
2021/10/01 12:39:30;;;;;;;28.02;20.08;;;;;;;9.20;64.74;101580.78;5014336;28;20037;-56
2021/10/01 12:42:22;;;;;;;29.52;20.80;;;;;;;9.52;64.33;101629.50;5003393;28;20086;-57
2021/10/01 12:45:17;;;;;;;27.80;20.10;;;;;;;9.48;63.64;101637.22;4999544;28;20045;-57
2021/10/01 12:48:05;;;;;;;26.70;20.38;;;;;;;9.41;64.71;101612.13;5003287;28;20018;-57
2021/10/01 12:50:53;;;;;;;31.27;21.35;;;;;;;9.41;65.79;101619.03;4998028;28;20247;-57
2021/10/01 12:53:38;;;;;;;26.80;19.60;;;;;;;9.37;64.81;101618.09;4998273;28;20038;-58
2021/10/01 12:56:25;;;;;;;24.63;19.77;;;;;;;9.41;64.95;101619.88;4996228;28;20058;-57
2021/10/01 12:59:11;;;;;;;28.60;19.45;;;;;;;9.35;64.86;101617.22;4995730;28;20065;-57
2021/10/01 13:02:07;;;;;;;27.27;19.08;;;;;;;9.19;66.33;101579.03;5002647;28;20334;-57
2021/10/01 13:05:03;;;;;;;23.52;18.83;;;;;;;9.36;65.00;101631.88;5002967;28;20034;-57
2021/10/01 13:08:14;;;;;;;25.52;19.63;;;;;;;9.32;64.44;101617.19;4994528;28;20039;-57
2021/10/01 13:11:01;;;;;;;25.23;19.80;;;;;;;9.33;64.57;101609.44;5011722;28;20023;-57
2021/10/01 13:13:47;;;;;;;28.27;20.15;;;;;;;9.33;65.17;101621.47;5001205;28;20029;-58
2021/10/01 13:16:33;;;;;;;26.65;19.35;;;;;;;9.31;64.28;101610.25;5002355;28;20035;-58
2021/10/01 13:19:22;;;;;;;26.63;20.38;;;;;;;9.29;64.51;101602.47;5003017;28;20028;-58
2021/10/01 13:22:08;;;;;;;29.17;21.20;;;;;;;9.35;64.62;101604.28;4990998;28;20030;-58
2021/10/01 13:24:55;;;;;;;29.85;20.95;;;;;;;9.21;65.05;101608.38;5002803;28;20022;-58
2021/10/01 13:27:49;;;;;;;30.20;20.13;;;;;;;9.19;65.52;101610.06;5003734;28;20096;-58
2021/10/01 13:30:35;;;;;;;26.58;19.02;;;;;;;9.19;65.31;101610.06;5000088;28;20034;-58
2021/10/01 13:33:23;;;;;;;27.52;20.35;;;;;;;9.21;64.82;101623.91;4997619;28;20031;-58
2021/10/01 13:36:09;;;;;;;24.13;18.65;;;;;;;9.14;64.37;101608.28;5001352;28;20353;-58
2021/10/01 13:38:55;;;;;;;25.30;19.05;;;;;;;9.13;64.96;101593.59;5006613;28;20046;-57
2021/10/01 13:41:42;;;;;;;27.38;20.45;;;;;;;9.11;65.30;101599.63;5006878;28;20286;-58
2021/10/01 13:44:28;;;;;;;25.95;19.77;;;;;;;9.07;64.92;101590.94;5006923;28;20089;-58
2021/10/01 13:47:14;;;;;;;25.20;20.10;;;;;;;9.07;65.41;101584.91;5007435;28;20034;-58
2021/10/01 13:50:01;;;;;;;24.35;19.85;;;;;;;9.08;65.39;101592.69;5006815;28;20025;-58
2021/10/01 13:52:47;;;;;;;29.30;20.92;;;;;;;8.97;64.90;101582.16;5006682;28;20349;-58
2021/10/01 13:55:33;;;;;;;25.38;19.92;;;;;;;8.96;64.64;101584.72;5006172;28;20331;-58
2021/10/01 13:58:19;;;;;;;24.10;19.23;;;;;;;9.02;65.57;101591.69;5005513;28;20033;-58
2021/10/01 14:01:06;;;;;;;25.50;19.13;;;;;;;8.99;66.15;101587.34;5003211;28;20026;-58
2021/10/01 14:03:53;;;;;;;26.65;19.60;;;;;;;8.91;66.66;101592.41;5000012;28;20030;-58
2021/10/01 14:06:39;;;;;;;25.45;18.60;;;;;;;8.91;66.92;101588.97;5006633;28;20074;-58
2021/10/01 14:09:25;;;;;;;26.02;19.33;;;;;;;8.93;66.26;101590.69;5007283;28;20030;-58
2021/10/01 14:12:13;;;;;;;28.33;20.67;;;;;;;8.81;66.20;101578.47;5006592;28;20042;-58
2021/10/01 14:14:59;;;;;;;28.40;19.08;;;;;;;8.87;65.80;101574.25;5006703;28;20026;-58
2021/10/01 14:17:45;;;;;;;25.35;18.27;;;;;;;8.92;65.32;101582.94;5003114;28;20031;-58
2021/10/01 14:20:32;;;;;;;23.85;18.95;;;;;;;8.78;64.99;101593.91;5003728;28;20046;-58
2021/10/01 14:23:18;;;;;;;25.40;18.70;;;;;;;8.82;66.53;101592.25;5001492;28;20030;-58
2021/10/01 14:26:04;;;;;;;26.42;19.60;;;;;;;8.79;67.68;101585.34;5006262;28;20343;-58
2021/10/01 14:28:49;;;;;;;23.85;17.92;;;;;;;8.80;65.92;101592.22;5001860;28;20023;-57